Time;durP1;ratioP1;P1;durP2;ratioP2;P2;SDS_P1;SDS_P2;PMS_P1;PMS_P2;Temp;Humidity;BMP_temperature;BMP_pressure;BME280_temperature;BME280_humidity;BME280_pressure;Samples;Min_cycle;Max_cycle;Signal;HPM_P1;HPM_P2
2023/06/19 00:04:34;;;;;;;;;;;;;;;18.08;100.00;97515.41;18561740;32;19957;-57
2023/06/19 00:14:37;;;;;;;;;;;;;;;18.23;100.00;97525.06;18561541;32;20325;-57
2023/06/19 00:24:39;;;;;;;;;;;;;;;18.33;100.00;97564.97;18561465;32;19973;-57
2023/06/19 00:34:42;;;;;;;;;;;;;;;18.41;100.00;97599.75;18561009;32;19989;-57
2023/06/19 00:44:45;;;;;;;;;;;;;;;18.53;100.00;97623.75;18560066;32;20332;-58
2023/06/19 00:54:48;;;;;;;;;;;;;;;18.63;100.00;97659.78;18546061;32;19956;-57
2023/06/19 01:04:54;;;;;;;;;;;;;;;18.66;100.00;97672.03;18560158;32;19944;-57
2023/06/19 01:14:58;;;;;;;;;;;;;;;18.63;100.00;97686.38;18545723;32;20381;-57
2023/06/19 01:25:01;;;;;;;;;;;;;;;18.56;100.00;97686.84;18559104;32;19953;-57
2023/06/19 01:35:06;;;;;;;;;;;;;;;18.52;100.00;97685.09;18547207;32;19996;-57
2023/06/19 01:45:09;;;;;;;;;;;;;;;18.47;100.00;97677.81;18570055;32;19957;-57
2023/06/19 01:55:13;;;;;;;;;;;;;;;18.45;100.00;97682.84;18569774;32;20312;-57
2023/06/19 02:05:15;;;;;;;;;;;;;;;18.36;100.00;97679.28;18568878;32;20311;-57
2023/06/19 02:15:17;;;;;;;;;;;;;;;18.19;100.00;97647.25;18554254;32;19965;-57
2023/06/19 02:25:20;;;;;;;;;;;;;;;18.10;100.00;97682.78;18568420;32;20001;-57
2023/06/19 02:35:23;;;;;;;;;;;;;;;18.07;100.00;97672.47;18567562;31;19988;-57
2023/06/19 02:45:25;;;;;;;;;;;;;;;18.04;100.00;97679.41;18565487;32;19961;-58
2023/06/19 02:55:28;;;;;;;;;;;;;;;18.03;100.00;97685.97;18565903;32;20396;-57
2023/06/19 03:05:31;;;;;;;;;;;;;;;17.98;100.00;97677.94;18565295;32;19968;-57
2023/06/19 03:15:33;;;;;;;;;;;;;;;17.93;100.00;97678.09;18564618;32;20032;-57
2023/06/19 03:25:36;;;;;;;;;;;;;;;17.84;100.00;97686.25;18563954;32;19956;-57
2023/06/19 03:35:38;;;;;;;;;;;;;;;17.80;100.00;97685.25;18563820;32;19952;-57
2023/06/19 03:45:41;;;;;;;;;;;;;;;17.77;100.00;97691.34;18563131;32;20291;-57
2023/06/19 03:55:44;;;;;;;;;;;;;;;17.71;100.00;97687.16;18562576;32;20384;-57
2023/06/19 04:05:46;;;;;;;;;;;;;;;17.66;100.00;97679.09;18547555;32;20336;-57
2023/06/19 04:15:48;;;;;;;;;;;;;;;17.68;100.00;97683.13;18547359;32;20047;-57
2023/06/19 04:25:52;;;;;;;;;;;;;;;17.76;100.00;97662.38;18560966;32;19956;-57
2023/06/19 04:35:55;;;;;;;;;;;;;;;17.81;100.00;97667.72;18546360;31;20317;-57
2023/06/19 04:45:57;;;;;;;;;;;;;;;17.88;100.00;97657.12;18546157;32;19996;-57
2023/06/19 04:55:59;;;;;;;;;;;;;;;17.99;100.00;97654.13;18546024;32;20262;-57
2023/06/19 05:06:03;;;;;;;;;;;;;;;18.22;100.00;97649.31;18560032;32;19977;-57
2023/06/19 05:16:06;;;;;;;;;;;;;;;18.54;100.00;97642.59;18569532;32;19952;-57
2023/06/19 05:26:09;;;;;;;;;;;;;;;18.73;100.00;97644.16;18571748;32;19972;-57
2023/06/19 05:36:11;;;;;;;;;;;;;;;18.89;100.00;97653.50;18570652;31;19972;-57
2023/06/19 05:46:14;;;;;;;;;;;;;;;19.10;100.00;97630.91;18570393;32;19968;-58
2023/06/19 05:56:16;;;;;;;;;;;;;;;19.34;100.00;97633.06;18555218;32;19992;-58
2023/06/19 06:06:18;;;;;;;;;;;;;;;19.58;100.00;97632.50;18569290;32;19953;-58
2023/06/19 06:16:21;;;;;;;;;;;;;;;19.76;100.00;97624.97;18554313;32;19944;-58
2023/06/19 06:26:24;;;;;;;;;;;;;;;19.82;100.00;97617.38;18567507;32;19960;-58
2023/06/19 06:36:27;;;;;;;;;;;;;;;19.92;100.00;97616.97;18566973;31;19987;-58
2023/06/19 06:46:37;;;;;;;;;;;;;;;20.13;100.00;97638.16;18566493;32;20296;-58
2023/06/19 06:56:39;;;;;;;;;;;;;;;20.53;100.00;97640.44;18565864;32;19960;-58
2023/06/19 07:06:42;;;;;;;;;;;;;;;21.04;100.00;97648.53;18550434;31;19961;-58
2023/06/19 07:16:47;;;;;;;;;;;;;;;21.51;100.00;97666.63;18549695;32;20294;-58
2023/06/19 07:27:12;;;;;;;;;;;;;;;21.84;100.00;97668.50;18550175;32;19953;-58
2023/06/19 07:37:18;;;;;;;;;;;;;;;21.90;100.00;97671.81;18538068;32;19944;-58
2023/06/19 07:47:21;;;;;;;;;;;;;;;21.81;100.00;97666.44;18548512;32;19996;-58
2023/06/19 07:57:26;;;;;;;;;;;;;;;21.80;100.00;97665.66;18562692;32;19952;-58
2023/06/19 08:07:29;;;;;;;;;;;;;;;21.77;100.00;97654.50;18561655;32;19968;-58
2023/06/19 08:17:32;;;;;;;;;;;;;;;22.38;100.00;97659.16;18561556;32;20337;-58
2023/06/19 08:27:36;;;;;;;;;;;;;;;23.24;100.00;97660.78;18547036;32;20343;-58
2023/06/19 08:37:40;;;;;;;;;;;;;;;23.94;100.00;97659.38;18560331;32;19957;-58
2023/06/19 08:47:43;;;;;;;;;;;;;;;24.52;100.00;97657.88;18567746;32;19971;-58
2023/06/19 08:57:57;;;;;;;;;;;;;;;25.00;100.00;97652.13;18572854;32;19998;-58
2023/06/19 09:08:01;;;;;;;;;;;;;;;25.47;98.69;97639.94;18545237;32;20246;-58
2023/06/19 09:18:11;;;;;;;;;;;;;;;25.99;96.79;97637.56;18571864;32;19964;-58
2023/06/19 09:28:21;;;;;;;;;;;;;;;26.38;88.96;97628.25;18571459;32;20021;-58
2023/06/19 09:38:45;;;;;;;;;;;;;;;26.86;82.93;97620.12;18570790;32;19944;-58
2023/06/19 09:48:54;;;;;;;;;;;;;;;27.59;69.23;97624.41;18556599;32;19953;-58
2023/06/19 09:58:59;;;;;;;;;;;;;;;28.13;66.28;97604.53;18568745;31;19975;-58
2023/06/19 10:09:07;;;;;;;;;;;;;;;28.67;66.79;97597.25;18568913;32;20280;-58
2023/06/19 10:19:17;;;;;;;;;;;;;;;29.40;61.28;97590.63;18554065;32;19945;-59
2023/06/19 10:29:25;;;;;;;;;;;;;;;29.29;54.71;97595.41;18567860;32;20022;-58
2023/06/19 10:39:30;;;;;;;;;;;;;;;29.23;54.51;97602.53;18566694;32;20012;-58
2023/06/19 10:49:33;;;;;;;;;;;;;;;28.93;54.33;97589.78;18551959;31;19953;-59
2023/06/19 10:59:39;;;;;;;;;;;;;;;29.05;56.78;97580.25;18565690;32;19953;-58
2023/06/19 11:09:43;;;;;;;;;;;;;;;29.46;49.98;97581.88;18564435;32;19967;-58
2023/06/19 11:19:46;;;;;;;;;;;;;;;29.68;53.75;97574.28;18550531;32;20261;-58
2023/06/19 11:34:32;;;;;;;;;;;;;;;29.30;50.19;97568.34;18683245;31;20282;-58
2023/06/19 11:44:36;;;;;;;;;;;;;;;29.30;50.19;97568.34;18683557;31;19967;-58
2023/06/19 11:54:42;;;;;;;;;;;;;;;28.64;54.57;97556.31;18683019;31;20070;-58
2023/06/19 12:04:47;;;;;;;;;;;;;;;28.48;52.68;97553.06;18681932;31;19972;-58
2023/06/19 12:14:51;;;;;;;;;;;;;;;28.51;58.04;97552.28;18667626;31;19974;-58
2023/06/19 12:24:54;;;;;;;;;;;;;;;28.40;58.34;97558.59;18680661;31;19956;-58
2023/06/19 12:34:57;;;;;;;;;;;;;;;27.65;57.18;97553.41;18680504;31;19952;-58
2023/06/19 12:45:00;;;;;;;;;;;;;;;27.75;56.77;97542.75;18639264;31;19967;-58
2023/06/19 12:55:04;;;;;;;;;;;;;;;28.02;54.59;97533.00;18635215;31;19960;-58
2023/06/19 13:05:07;;;;;;;;;;;;;;;28.13;54.75;97512.81;18620271;31;19956;-58
2023/06/19 13:15:14;;;;;;;;;;;;;;;28.69;53.24;97503.06;18596076;31;20041;-58
2023/06/19 13:25:17;;;;;;;;;;;;;;;30.12;51.51;97499.75;18567599;31;19967;-58
2023/06/19 13:35:21;;;;;;;;;;;;;;;31.93;44.86;97511.16;18567558;32;19952;-58
2023/06/19 13:45:24;;;;;;;;;;;;;;;31.98;44.40;97496.72;18552560;32;19952;-58
2023/06/19 13:55:28;;;;;;;;;;;;;;;32.43;40.71;97488.16;18565360;32;19948;-58
2023/06/19 14:05:32;;;;;;;;;;;;;;;32.30;41.48;97473.16;18551461;32;19941;-58
2023/06/19 14:15:38;;;;;;;;;;;;;;;32.75;39.28;97456.16;18538854;31;19965;-58
2023/06/19 14:25:41;;;;;;;;;;;;;;;33.30;38.57;97450.44;18564517;31;20010;-58
2023/06/19 14:35:46;;;;;;;;;;;;;;;34.40;35.31;97450.69;18550269;32;19991;-58
2023/06/19 14:45:59;;;;;;;;;;;;;;;34.83;36.87;97435.66;18550271;32;19960;-58
2023/06/19 14:56:02;;;;;;;;;;;;;;;35.16;34.72;97440.47;18562518;32;19968;-58
2023/06/19 15:06:05;;;;;;;;;;;;;;;35.05;33.54;97419.03;18547837;32;19953;-58
2023/06/19 15:16:11;;;;;;;;;;;;;;;33.44;37.06;97402.56;18547345;32;19967;-58
2023/06/19 15:26:15;;;;;;;;;;;;;;;32.58;39.53;97382.41;18561074;31;20285;-58
2023/06/19 15:36:18;;;;;;;;;;;;;;;32.14;39.54;97381.47;18560932;32;19952;-58
2023/06/19 15:46:21;;;;;;;;;;;;;;;32.05;39.49;97379.19;18561018;32;19980;-57
2023/06/19 15:56:27;;;;;;;;;;;;;;;31.51;39.72;97363.09;18560533;32;20016;-58
2023/06/19 16:06:30;;;;;;;;;;;;;;;31.40;42.03;97365.22;18560089;31;19979;-58
2023/06/19 16:16:33;;;;;;;;;;;;;;;30.95;41.99;97342.97;18552324;32;19953;-58
2023/06/19 16:26:36;;;;;;;;;;;;;;;30.61;46.25;97330.50;18571361;31;19996;-58
2023/06/19 16:36:40;;;;;;;;;;;;;;;30.46;44.08;97317.87;18571234;32;19983;-58
2023/06/19 16:46:43;;;;;;;;;;;;;;;30.92;40.99;97311.06;18570128;32;19949;-58
2023/06/19 16:56:45;;;;;;;;;;;;;;;30.33;44.62;97301.63;18555956;32;19996;-58
2023/06/19 17:06:49;;;;;;;;;;;;;;;29.84;50.07;97300.78;18554791;32;19969;-58
2023/06/19 17:16:51;;;;;;;;;;;;;;;29.21;50.93;97301.44;18568937;32;20348;-58
2023/06/19 17:26:57;;;;;;;;;;;;;;;28.97;55.12;97290.00;18567412;31;19984;-58
2023/06/19 17:36:59;;;;;;;;;;;;;;;29.12;54.65;97285.19;18567593;32;19971;-58
2023/06/19 17:47:02;;;;;;;;;;;;;;;28.83;51.07;97278.91;18553124;32;19980;-58
2023/06/19 17:57:05;;;;;;;;;;;;;;;28.18;57.85;97270.63;18565894;32;19996;-59
2023/06/19 18:07:09;;;;;;;;;;;;;;;28.27;54.47;97276.53;18565566;32;19949;-58
2023/06/19 18:17:11;;;;;;;;;;;;;;;30.71;54.16;97289.75;18564876;32;19997;-58
2023/06/19 18:27:14;;;;;;;;;;;;;;;29.52;60.62;97291.38;18549629;32;19972;-58
2023/06/19 18:37:17;;;;;;;;;;;;;;;27.86;70.70;97279.69;18563364;32;19975;-58
2023/06/19 18:47:20;;;;;;;;;;;;;;;26.57;78.79;97291.00;18563387;32;19959;-59
2023/06/19 18:57:27;;;;;;;;;;;;;;;25.59;81.94;97267.19;18548639;32;19990;-58
2023/06/19 19:07:30;;;;;;;;;;;;;;;24.85;87.31;97261.16;18547881;32;19977;-58
2023/06/19 19:17:33;;;;;;;;;;;;;;;24.21;95.70;97258.22;18561965;32;19975;-58
2023/06/19 19:27:35;;;;;;;;;;;;;;;23.68;100.00;97271.50;18560898;31;19949;-58
2023/06/19 19:37:38;;;;;;;;;;;;;;;23.20;100.00;97273.75;18561131;32;19961;-58
2023/06/19 19:47:41;;;;;;;;;;;;;;;22.73;100.00;97293.97;18562489;32;20264;-58
2023/06/19 19:57:43;;;;;;;;;;;;;;;22.37;100.00;97310.47;18546204;32;20015;-58
2023/06/19 20:07:47;;;;;;;;;;;;;;;22.06;100.00;97316.75;18572892;32;19962;-58
2023/06/19 20:17:50;;;;;;;;;;;;;;;21.77;100.00;97329.78;18572443;32;20000;-58
2023/06/19 20:27:53;;;;;;;;;;;;;;;21.54;100.00;97333.09;18571438;31;19968;-58
2023/06/19 20:38:09;;;;;;;;;;;;;;;21.28;100.00;97334.31;18571056;32;19985;-58
2023/06/19 20:48:12;;;;;;;;;;;;;;;21.01;100.00;97335.88;18556384;32;20003;-58
2023/06/19 20:58:15;;;;;;;;;;;;;;;20.76;100.00;97335.94;18569488;32;19982;-58
2023/06/19 21:08:17;;;;;;;;;;;;;;;20.62;100.00;97333.50;18568979;32;19975;-57
2023/06/19 21:18:20;;;;;;;;;;;;;;;20.58;100.00;97340.03;18568701;32;19996;-58
2023/06/19 21:28:22;;;;;;;;;;;;;;;20.56;100.00;97334.88;18567628;31;19964;-58
2023/06/19 21:38:26;;;;;;;;;;;;;;;20.41;100.00;97354.78;18567738;32;20017;-58
2023/06/19 21:48:28;;;;;;;;;;;;;;;20.29;100.00;97367.34;18566807;32;20238;-58
2023/06/19 21:58:30;;;;;;;;;;;;;;;20.29;100.00;97377.53;18551782;32;19960;-58
2023/06/19 22:08:33;;;;;;;;;;;;;;;20.30;100.00;97370.91;18565426;32;19975;-58
2023/06/19 22:18:44;;;;;;;;;;;;;;;20.33;100.00;97410.63;18564535;32;19994;-58
2023/06/19 22:28:47;;;;;;;;;;;;;;;20.35;100.00;97509.91;18563725;31;19949;-58
2023/06/19 22:38:50;;;;;;;;;;;;;;;20.25;100.00;97569.59;18563850;32;20344;-58
2023/06/19 22:48:52;;;;;;;;;;;;;;;20.16;100.00;97599.06;18563222;32;20052;-58
2023/06/19 22:58:55;;;;;;;;;;;;;;;20.10;100.00;97616.88;18548728;32;19948;-58
2023/06/19 23:08:58;;;;;;;;;;;;;;;20.03;100.00;97627.56;18562083;32;20006;-59
2023/06/19 23:19:00;;;;;;;;;;;;;;;19.95;100.00;97626.50;18561614;31;19964;-59
2023/06/19 23:29:03;;;;;;;;;;;;;;;19.89;100.00;97623.13;18560909;32;19960;-59
2023/06/19 23:39:05;;;;;;;;;;;;;;;19.81;100.00;97607.53;18546887;32;19971;-59
2023/06/19 23:49:08;;;;;;;;;;;;;;;19.77;100.00;97598.34;18560565;32;19971;-58
2023/06/19 23:59:10;;;;;;;;;;;;;;;19.69;100.00;97569.00;18560513;32;19952;-59
